sensor_id;sensor_type;location;lat;lon;timestamp;P1;durP1;ratioP1;P2;durP2;ratioP2
1106;SDS011;540;49.448;8.612;2023-12-20T00:01:15;14.32;;;11.15;;
1106;SDS011;540;49.448;8.612;2023-12-20T00:03:43;16.73;;;11.68;;
1106;SDS011;540;49.448;8.612;2023-12-20T00:06:12;14.05;;;11.27;;
1106;SDS011;540;49.448;8.612;2023-12-20T00:08:40;16.02;;;11.18;;
1106;SDS011;540;49.448;8.612;2023-12-20T00:11:08;17.77;;;11.57;;
1106;SDS011;540;49.448;8.612;2023-12-20T00:13:35;14.85;;;11.65;;
1106;SDS011;540;49.448;8.612;2023-12-20T00:16:04;15.98;;;10.82;;
1106;SDS011;540;49.448;8.612;2023-12-20T00:18:32;16.13;;;11.15;;
1106;SDS011;540;49.448;8.612;2023-12-20T00:20:59;15.88;;;11.13;;
1106;SDS011;540;49.448;8.612;2023-12-20T00:23:29;13.75;;;10.48;;
1106;SDS011;540;49.448;8.612;2023-12-20T00:25:56;15.25;;;10.65;;
1106;SDS011;540;49.448;8.612;2023-12-20T00:28:25;16.98;;;11.23;;
1106;SDS011;540;49.448;8.612;2023-12-20T00:30:53;15.95;;;11.60;;
1106;SDS011;540;49.448;8.612;2023-12-20T00:33:21;14.98;;;10.05;;
1106;SDS011;540;49.448;8.612;2023-12-20T00:35:49;15.05;;;11.02;;
1106;SDS011;540;49.448;8.612;2023-12-20T00:38:17;14.35;;;11.23;;
1106;SDS011;540;49.448;8.612;2023-12-20T00:40:46;15.48;;;11.23;;
1106;SDS011;540;49.448;8.612;2023-12-20T00:43:15;17.05;;;10.55;;
1106;SDS011;540;49.448;8.612;2023-12-20T00:45:43;12.43;;;9.43;;
1106;SDS011;540;49.448;8.612;2023-12-20T00:48:11;15.40;;;10.45;;
1106;SDS011;540;49.448;8.612;2023-12-20T00:50:39;13.45;;;9.90;;
1106;SDS011;540;49.448;8.612;2023-12-20T00:53:07;14.30;;;9.82;;
1106;SDS011;540;49.448;8.612;2023-12-20T00:55:34;14.77;;;11.13;;
1106;SDS011;540;49.448;8.612;2023-12-20T00:58:04;12.98;;;9.40;;
1106;SDS011;540;49.448;8.612;2023-12-20T01:00:31;15.07;;;8.73;;
1106;SDS011;540;49.448;8.612;2023-12-20T01:02:59;13.38;;;10.60;;
1106;SDS011;540;49.448;8.612;2023-12-20T01:05:27;12.02;;;9.23;;
1106;SDS011;540;49.448;8.612;2023-12-20T01:07:55;9.88;;;7.47;;
1106;SDS011;540;49.448;8.612;2023-12-20T01:10:23;10.50;;;8.48;;
1106;SDS011;540;49.448;8.612;2023-12-20T01:12:54;12.70;;;8.93;;
1106;SDS011;540;49.448;8.612;2023-12-20T01:15:23;10.75;;;7.38;;
1106;SDS011;540;49.448;8.612;2023-12-20T01:17:51;11.93;;;7.70;;
1106;SDS011;540;49.448;8.612;2023-12-20T01:20:19;11.23;;;7.22;;
1106;SDS011;540;49.448;8.612;2023-12-20T01:22:47;10.60;;;7.43;;
1106;SDS011;540;49.448;8.612;2023-12-20T01:25:15;9.25;;;6.82;;
1106;SDS011;540;49.448;8.612;2023-12-20T01:27:43;10.80;;;7.32;;
1106;SDS011;540;49.448;8.612;2023-12-20T01:30:11;11.75;;;6.10;;
1106;SDS011;540;49.448;8.612;2023-12-20T01:32:41;8.43;;;6.60;;
1106;SDS011;540;49.448;8.612;2023-12-20T01:35:09;11.07;;;6.68;;
1106;SDS011;540;49.448;8.612;2023-12-20T01:37:38;10.45;;;6.93;;
1106;SDS011;540;49.448;8.612;2023-12-20T01:40:07;9.27;;;6.60;;
1106;SDS011;540;49.448;8.612;2023-12-20T01:42:35;11.20;;;6.47;;
1106;SDS011;540;49.448;8.612;2023-12-20T01:45:03;10.50;;;6.65;;
1106;SDS011;540;49.448;8.612;2023-12-20T01:47:32;8.80;;;6.43;;
1106;SDS011;540;49.448;8.612;2023-12-20T01:50:02;9.70;;;6.15;;
1106;SDS011;540;49.448;8.612;2023-12-20T01:52:31;7.38;;;5.45;;
1106;SDS011;540;49.448;8.612;2023-12-20T01:54:59;7.75;;;6.47;;
1106;SDS011;540;49.448;8.612;2023-12-20T01:57:30;10.77;;;7.05;;
1106;SDS011;540;49.448;8.612;2023-12-20T01:59:58;8.60;;;6.40;;
1106;SDS011;540;49.448;8.612;2023-12-20T02:02:26;9.55;;;7.22;;
1106;SDS011;540;49.448;8.612;2023-12-20T02:04:55;12.63;;;7.88;;
1106;SDS011;540;49.448;8.612;2023-12-20T02:07:25;10.52;;;7.60;;
1106;SDS011;540;49.448;8.612;2023-12-20T02:09:54;10.32;;;7.82;;
1106;SDS011;540;49.448;8.612;2023-12-20T02:12:22;13.95;;;8.38;;
1106;SDS011;540;49.448;8.612;2023-12-20T02:14:50;10.88;;;8.55;;
1106;SDS011;540;49.448;8.612;2023-12-20T02:17:18;11.55;;;9.50;;
1106;SDS011;540;49.448;8.612;2023-12-20T02:19:46;13.93;;;9.70;;
1106;SDS011;540;49.448;8.612;2023-12-20T02:22:15;14.07;;;9.88;;
1106;SDS011;540;49.448;8.612;2023-12-20T02:24:43;15.10;;;10.80;;
1106;SDS011;540;49.448;8.612;2023-12-20T02:27:11;13.50;;;9.35;;
1106;SDS011;540;49.448;8.612;2023-12-20T02:29:40;13.40;;;9.93;;
1106;SDS011;540;49.448;8.612;2023-12-20T02:32:07;12.57;;;9.40;;
1106;SDS011;540;49.448;8.612;2023-12-20T02:34:35;15.65;;;10.45;;
1106;SDS011;540;49.448;8.612;2023-12-20T02:37:03;15.52;;;10.05;;
1106;SDS011;540;49.448;8.612;2023-12-20T02:39:32;16.08;;;11.18;;
1106;SDS011;540;49.448;8.612;2023-12-20T02:42:00;16.92;;;10.63;;
1106;SDS011;540;49.448;8.612;2023-12-20T02:44:28;16.20;;;12.32;;
1106;SDS011;540;49.448;8.612;2023-12-20T02:46:56;15.32;;;11.05;;
1106;SDS011;540;49.448;8.612;2023-12-20T02:49:24;12.55;;;10.82;;
1106;SDS011;540;49.448;8.612;2023-12-20T02:51:52;15.90;;;11.10;;
1106;SDS011;540;49.448;8.612;2023-12-20T02:54:19;16.25;;;10.52;;
1106;SDS011;540;49.448;8.612;2023-12-20T02:56:49;17.08;;;11.15;;
1106;SDS011;540;49.448;8.612;2023-12-20T02:59:17;14.48;;;10.15;;
1106;SDS011;540;49.448;8.612;2023-12-20T03:01:45;15.70;;;11.68;;
1106;SDS011;540;49.448;8.612;2023-12-20T03:04:13;16.90;;;11.10;;
1106;SDS011;540;49.448;8.612;2023-12-20T03:06:41;13.50;;;10.05;;
1106;SDS011;540;49.448;8.612;2023-12-20T03:09:09;16.58;;;10.30;;
1106;SDS011;540;49.448;8.612;2023-12-20T03:11:37;14.27;;;9.85;;
1106;SDS011;540;49.448;8.612;2023-12-20T03:14:06;13.23;;;9.90;;
1106;SDS011;540;49.448;8.612;2023-12-20T03:16:34;14.73;;;9.52;;
1106;SDS011;540;49.448;8.612;2023-12-20T03:19:02;13.85;;;9.25;;
1106;SDS011;540;49.448;8.612;2023-12-20T03:21:30;14.02;;;9.30;;
1106;SDS011;540;49.448;8.612;2023-12-20T03:23:58;13.43;;;8.98;;
1106;SDS011;540;49.448;8.612;2023-12-20T03:26:26;14.15;;;9.80;;
1106;SDS011;540;49.448;8.612;2023-12-20T03:28:54;15.25;;;12.18;;
1106;SDS011;540;49.448;8.612;2023-12-20T03:31:23;11.80;;;9.13;;
1106;SDS011;540;49.448;8.612;2023-12-20T03:33:51;10.45;;;7.78;;
1106;SDS011;540;49.448;8.612;2023-12-20T03:36:20;11.27;;;8.55;;
1106;SDS011;540;49.448;8.612;2023-12-20T03:38:48;11.65;;;8.38;;
1106;SDS011;540;49.448;8.612;2023-12-20T03:41:15;11.98;;;9.05;;
1106;SDS011;540;49.448;8.612;2023-12-20T03:43:43;10.57;;;8.25;;
1106;SDS011;540;49.448;8.612;2023-12-20T03:46:11;13.05;;;8.43;;
1106;SDS011;540;49.448;8.612;2023-12-20T03:48:40;9.70;;;7.50;;
1106;SDS011;540;49.448;8.612;2023-12-20T03:51:08;10.27;;;7.45;;
1106;SDS011;540;49.448;8.612;2023-12-20T03:53:36;12.25;;;7.97;;
1106;SDS011;540;49.448;8.612;2023-12-20T03:56:04;9.75;;;6.90;;
1106;SDS011;540;49.448;8.612;2023-12-20T03:58:32;9.85;;;7.85;;
1106;SDS011;540;49.448;8.612;2023-12-20T04:01:00;9.52;;;7.32;;
1106;SDS011;540;49.448;8.612;2023-12-20T04:03:28;10.55;;;7.22;;
1106;SDS011;540;49.448;8.612;2023-12-20T04:05:58;9.25;;;6.78;;
1106;SDS011;540;49.448;8.612;2023-12-20T04:08:26;9.38;;;7.13;;
1106;SDS011;540;49.448;8.612;2023-12-20T04:10:53;8.90;;;6.50;;
1106;SDS011;540;49.448;8.612;2023-12-20T04:13:21;8.55;;;6.28;;
1106;SDS011;540;49.448;8.612;2023-12-20T04:15:49;9.23;;;6.80;;
1106;SDS011;540;49.448;8.612;2023-12-20T04:18:18;8.30;;;6.38;;
1106;SDS011;540;49.448;8.612;2023-12-20T04:20:46;11.27;;;6.85;;
1106;SDS011;540;49.448;8.612;2023-12-20T04:23:15;8.00;;;6.50;;
1106;SDS011;540;49.448;8.612;2023-12-20T04:25:43;9.27;;;6.95;;
1106;SDS011;540;49.448;8.612;2023-12-20T04:28:10;9.52;;;7.07;;
1106;SDS011;540;49.448;8.612;2023-12-20T04:30:38;10.85;;;7.10;;
1106;SDS011;540;49.448;8.612;2023-12-20T04:33:06;9.65;;;7.55;;
1106;SDS011;540;49.448;8.612;2023-12-20T04:35:34;9.98;;;7.47;;
1106;SDS011;540;49.448;8.612;2023-12-20T04:38:02;9.57;;;6.90;;
1106;SDS011;540;49.448;8.612;2023-12-20T04:40:31;10.13;;;7.05;;
1106;SDS011;540;49.448;8.612;2023-12-20T04:42:59;8.20;;;6.68;;
1106;SDS011;540;49.448;8.612;2023-12-20T04:45:27;9.48;;;6.97;;
1106;SDS011;540;49.448;8.612;2023-12-20T04:47:55;9.98;;;7.43;;
1106;SDS011;540;49.448;8.612;2023-12-20T04:50:23;9.90;;;7.18;;
1106;SDS011;540;49.448;8.612;2023-12-20T04:52:51;10.52;;;6.82;;
1106;SDS011;540;49.448;8.612;2023-12-20T04:55:19;8.15;;;7.13;;
1106;SDS011;540;49.448;8.612;2023-12-20T04:57:48;9.18;;;6.70;;
1106;SDS011;540;49.448;8.612;2023-12-20T05:00:16;7.57;;;6.10;;
1106;SDS011;540;49.448;8.612;2023-12-20T05:02:44;8.30;;;6.60;;
1106;SDS011;540;49.448;8.612;2023-12-20T05:05:12;9.10;;;6.28;;
1106;SDS011;540;49.448;8.612;2023-12-20T05:07:41;9.27;;;7.05;;
1106;SDS011;540;49.448;8.612;2023-12-20T05:10:09;9.50;;;6.93;;
1106;SDS011;540;49.448;8.612;2023-12-20T05:12:37;24.17;;;12.02;;
1106;SDS011;540;49.448;8.612;2023-12-20T05:15:07;15.95;;;9.93;;
1106;SDS011;540;49.448;8.612;2023-12-20T05:17:35;8.18;;;6.30;;
1106;SDS011;540;49.448;8.612;2023-12-20T05:20:04;17.70;;;11.40;;
1106;SDS011;540;49.448;8.612;2023-12-20T05:22:33;15.73;;;9.70;;
1106;SDS011;540;49.448;8.612;2023-12-20T05:25:00;13.75;;;9.15;;
1106;SDS011;540;49.448;8.612;2023-12-20T05:27:28;12.40;;;8.82;;
1106;SDS011;540;49.448;8.612;2023-12-20T05:29:56;12.35;;;8.38;;
1106;SDS011;540;49.448;8.612;2023-12-20T05:32:25;9.80;;;7.88;;
1106;SDS011;540;49.448;8.612;2023-12-20T05:34:53;9.27;;;6.50;;
1106;SDS011;540;49.448;8.612;2023-12-20T05:37:21;9.98;;;7.93;;
1106;SDS011;540;49.448;8.612;2023-12-20T05:39:49;11.60;;;8.10;;
1106;SDS011;540;49.448;8.612;2023-12-20T05:42:17;8.82;;;5.80;;
1106;SDS011;540;49.448;8.612;2023-12-20T05:44:45;5.80;;;4.38;;
1106;SDS011;540;49.448;8.612;2023-12-20T05:47:15;8.70;;;5.72;;
1106;SDS011;540;49.448;8.612;2023-12-20T05:49:44;5.47;;;4.60;;
1106;SDS011;540;49.448;8.612;2023-12-20T05:52:12;7.15;;;5.13;;
1106;SDS011;540;49.448;8.612;2023-12-20T05:54:40;5.80;;;5.07;;
1106;SDS011;540;49.448;8.612;2023-12-20T05:57:09;8.82;;;6.43;;
1106;SDS011;540;49.448;8.612;2023-12-20T05:59:36;6.28;;;5.30;;
1106;SDS011;540;49.448;8.612;2023-12-20T06:02:04;10.23;;;6.70;;
1106;SDS011;540;49.448;8.612;2023-12-20T06:04:32;6.15;;;5.07;;
1106;SDS011;540;49.448;8.612;2023-12-20T06:07:02;6.20;;;5.03;;
1106;SDS011;540;49.448;8.612;2023-12-20T06:09:30;5.13;;;4.45;;
1106;SDS011;540;49.448;8.612;2023-12-20T06:11:58;8.48;;;4.95;;
1106;SDS011;540;49.448;8.612;2023-12-20T06:14:25;6.43;;;4.95;;
1106;SDS011;540;49.448;8.612;2023-12-20T06:16:53;6.25;;;4.85;;
1106;SDS011;540;49.448;8.612;2023-12-20T06:19:21;5.35;;;4.85;;
1106;SDS011;540;49.448;8.612;2023-12-20T06:21:49;8.82;;;5.45;;
1106;SDS011;540;49.448;8.612;2023-12-20T06:24:18;8.20;;;5.45;;
1106;SDS011;540;49.448;8.612;2023-12-20T06:26:47;7.10;;;5.38;;
1106;SDS011;540;49.448;8.612;2023-12-20T06:29:15;8.25;;;6.45;;
1106;SDS011;540;49.448;8.612;2023-12-20T06:31:43;8.85;;;6.88;;
1106;SDS011;540;49.448;8.612;2023-12-20T06:34:11;8.07;;;6.53;;
1106;SDS011;540;49.448;8.612;2023-12-20T06:36:39;13.00;;;7.15;;
1106;SDS011;540;49.448;8.612;2023-12-20T06:39:07;9.98;;;8.32;;
1106;SDS011;540;49.448;8.612;2023-12-20T06:41:36;15.15;;;11.90;;
1106;SDS011;540;49.448;8.612;2023-12-20T06:44:04;16.55;;;11.85;;
1106;SDS011;540;49.448;8.612;2023-12-20T06:46:32;12.52;;;7.90;;
1106;SDS011;540;49.448;8.612;2023-12-20T06:49:00;7.70;;;6.22;;
1106;SDS011;540;49.448;8.612;2023-12-20T06:51:28;7.57;;;6.32;;
1106;SDS011;540;49.448;8.612;2023-12-20T06:53:57;8.25;;;6.82;;
1106;SDS011;540;49.448;8.612;2023-12-20T06:56:26;9.63;;;6.97;;
1106;SDS011;540;49.448;8.612;2023-12-20T06:58:55;14.65;;;9.18;;
1106;SDS011;540;49.448;8.612;2023-12-20T07:01:23;15.00;;;9.90;;
1106;SDS011;540;49.448;8.612;2023-12-20T07:03:51;9.35;;;7.63;;
1106;SDS011;540;49.448;8.612;2023-12-20T07:06:18;9.25;;;6.40;;
1106;SDS011;540;49.448;8.612;2023-12-20T07:08:48;9.88;;;7.00;;
1106;SDS011;540;49.448;8.612;2023-12-20T07:11:16;8.43;;;6.25;;
1106;SDS011;540;49.448;8.612;2023-12-20T07:13:43;10.48;;;6.93;;
1106;SDS011;540;49.448;8.612;2023-12-20T07:16:13;11.30;;;8.55;;
1106;SDS011;540;49.448;8.612;2023-12-20T07:18:41;12.68;;;8.95;;
1106;SDS011;540;49.448;8.612;2023-12-20T07:21:08;15.57;;;10.02;;
1106;SDS011;540;49.448;8.612;2023-12-20T07:23:36;12.40;;;8.75;;
1106;SDS011;540;49.448;8.612;2023-12-20T07:26:04;9.50;;;7.68;;
1106;SDS011;540;49.448;8.612;2023-12-20T07:28:32;14.45;;;9.35;;
1106;SDS011;540;49.448;8.612;2023-12-20T07:31:00;12.35;;;8.15;;
1106;SDS011;540;49.448;8.612;2023-12-20T07:33:30;15.27;;;6.70;;
1106;SDS011;540;49.448;8.612;2023-12-20T07:36:05;13.45;;;7.10;;
1106;SDS011;540;49.448;8.612;2023-12-20T07:38:33;8.07;;;4.88;;
1106;SDS011;540;49.448;8.612;2023-12-20T07:41:01;6.38;;;4.88;;
1106;SDS011;540;49.448;8.612;2023-12-20T07:43:29;8.57;;;5.10;;
1106;SDS011;540;49.448;8.612;2023-12-20T07:45:57;7.85;;;5.10;;
1106;SDS011;540;49.448;8.612;2023-12-20T07:48:25;6.93;;;4.45;;
1106;SDS011;540;49.448;8.612;2023-12-20T07:50:54;7.72;;;4.53;;
1106;SDS011;540;49.448;8.612;2023-12-20T07:53:22;6.47;;;4.75;;
1106;SDS011;540;49.448;8.612;2023-12-20T07:55:50;7.50;;;4.47;;
1106;SDS011;540;49.448;8.612;2023-12-20T07:58:18;7.50;;;4.63;;
1106;SDS011;540;49.448;8.612;2023-12-20T08:00:48;8.07;;;4.55;;
1106;SDS011;540;49.448;8.612;2023-12-20T08:03:15;6.45;;;5.18;;
1106;SDS011;540;49.448;8.612;2023-12-20T08:05:43;7.28;;;5.10;;
1106;SDS011;540;49.448;8.612;2023-12-20T08:08:12;8.02;;;4.85;;
1106;SDS011;540;49.448;8.612;2023-12-20T08:10:40;9.45;;;4.30;;
1106;SDS011;540;49.448;8.612;2023-12-20T08:13:08;5.97;;;4.07;;
1106;SDS011;540;49.448;8.612;2023-12-20T08:15:36;5.63;;;4.30;;
1106;SDS011;540;49.448;8.612;2023-12-20T08:18:04;5.20;;;4.03;;
1106;SDS011;540;49.448;8.612;2023-12-20T08:20:32;5.75;;;4.30;;
1106;SDS011;540;49.448;8.612;2023-12-20T08:23:06;5.63;;;4.03;;
1106;SDS011;540;49.448;8.612;2023-12-20T08:25:35;6.63;;;3.92;;
1106;SDS011;540;49.448;8.612;2023-12-20T08:28:03;6.55;;;3.97;;
1106;SDS011;540;49.448;8.612;2023-12-20T08:30:31;5.18;;;3.60;;
1106;SDS011;540;49.448;8.612;2023-12-20T08:32:59;5.68;;;3.53;;
1106;SDS011;540;49.448;8.612;2023-12-20T08:35:28;5.72;;;4.47;;
1106;SDS011;540;49.448;8.612;2023-12-20T08:37:56;4.15;;;3.55;;
1106;SDS011;540;49.448;8.612;2023-12-20T08:40:24;6.32;;;3.67;;
1106;SDS011;540;49.448;8.612;2023-12-20T08:42:54;5.57;;;3.35;;
1106;SDS011;540;49.448;8.612;2023-12-20T08:45:21;3.80;;;3.20;;
1106;SDS011;540;49.448;8.612;2023-12-20T08:47:49;10.52;;;5.57;;
1106;SDS011;540;49.448;8.612;2023-12-20T08:50:18;7.53;;;5.25;;
1106;SDS011;540;49.448;8.612;2023-12-20T08:52:46;6.20;;;3.95;;
1106;SDS011;540;49.448;8.612;2023-12-20T08:55:14;5.45;;;3.83;;
1106;SDS011;540;49.448;8.612;2023-12-20T08:57:44;6.25;;;4.50;;
1106;SDS011;540;49.448;8.612;2023-12-20T09:00:15;6.03;;;4.07;;
1106;SDS011;540;49.448;8.612;2023-12-20T09:02:44;7.53;;;3.88;;
1106;SDS011;540;49.448;8.612;2023-12-20T09:05:13;8.77;;;4.38;;
1106;SDS011;540;49.448;8.612;2023-12-20T09:07:43;8.63;;;3.50;;
1106;SDS011;540;49.448;8.612;2023-12-20T09:10:12;5.40;;;3.63;;
1106;SDS011;540;49.448;8.612;2023-12-20T09:12:43;8.57;;;3.90;;
1106;SDS011;540;49.448;8.612;2023-12-20T09:15:15;3.97;;;2.80;;
1106;SDS011;540;49.448;8.612;2023-12-20T09:17:44;4.68;;;2.40;;
1106;SDS011;540;49.448;8.612;2023-12-20T09:20:13;4.57;;;2.50;;
1106;SDS011;540;49.448;8.612;2023-12-20T09:22:43;5.05;;;2.22;;
1106;SDS011;540;49.448;8.612;2023-12-20T09:25:12;4.45;;;1.90;;
1106;SDS011;540;49.448;8.612;2023-12-20T09:27:42;3.58;;;2.42;;
1106;SDS011;540;49.448;8.612;2023-12-20T09:30:12;5.28;;;2.38;;
1106;SDS011;540;49.448;8.612;2023-12-20T09:32:53;5.63;;;2.58;;
1106;SDS011;540;49.448;8.612;2023-12-20T09:35:22;3.83;;;2.30;;
1106;SDS011;540;49.448;8.612;2023-12-20T09:37:51;3.60;;;2.15;;
1106;SDS011;540;49.448;8.612;2023-12-20T09:40:19;2.95;;;1.80;;
1106;SDS011;540;49.448;8.612;2023-12-20T09:42:47;2.75;;;1.63;;
1106;SDS011;540;49.448;8.612;2023-12-20T09:45:20;5.00;;;1.98;;
1106;SDS011;540;49.448;8.612;2023-12-20T09:47:48;4.70;;;1.63;;
1106;SDS011;540;49.448;8.612;2023-12-20T09:50:23;3.00;;;1.55;;
1106;SDS011;540;49.448;8.612;2023-12-20T09:52:51;6.78;;;1.83;;
1106;SDS011;540;49.448;8.612;2023-12-20T09:55:20;5.70;;;1.50;;
1106;SDS011;540;49.448;8.612;2023-12-20T09:57:48;8.90;;;2.10;;
1106;SDS011;540;49.448;8.612;2023-12-20T10:00:17;5.75;;;1.92;;
1106;SDS011;540;49.448;8.612;2023-12-20T10:02:48;6.95;;;1.80;;
1106;SDS011;540;49.448;8.612;2023-12-20T10:05:20;4.80;;;2.22;;
1106;SDS011;540;49.448;8.612;2023-12-20T10:07:54;3.67;;;1.85;;
1106;SDS011;540;49.448;8.612;2023-12-20T10:10:22;3.10;;;2.25;;
1106;SDS011;540;49.448;8.612;2023-12-20T10:13:07;5.28;;;2.85;;
1106;SDS011;540;49.448;8.612;2023-12-20T10:15:37;7.97;;;2.30;;
1106;SDS011;540;49.448;8.612;2023-12-20T10:18:07;6.40;;;2.20;;
1106;SDS011;540;49.448;8.612;2023-12-20T10:20:34;7.80;;;2.45;;
1106;SDS011;540;49.448;8.612;2023-12-20T10:23:03;9.23;;;2.53;;
1106;SDS011;540;49.448;8.612;2023-12-20T10:25:31;7.90;;;2.33;;
1106;SDS011;540;49.448;8.612;2023-12-20T10:28:09;6.53;;;2.40;;
1106;SDS011;540;49.448;8.612;2023-12-20T10:30:38;6.53;;;2.95;;
1106;SDS011;540;49.448;8.612;2023-12-20T10:33:08;5.75;;;2.70;;
1106;SDS011;540;49.448;8.612;2023-12-20T10:35:38;7.10;;;2.70;;
1106;SDS011;540;49.448;8.612;2023-12-20T10:38:11;5.20;;;2.00;;
1106;SDS011;540;49.448;8.612;2023-12-20T10:40:40;5.30;;;2.45;;
1106;SDS011;540;49.448;8.612;2023-12-20T10:43:09;13.10;;;4.50;;
1106;SDS011;540;49.448;8.612;2023-12-20T10:45:38;9.40;;;3.20;;
1106;SDS011;540;49.448;8.612;2023-12-20T10:48:06;8.60;;;2.67;;
1106;SDS011;540;49.448;8.612;2023-12-20T10:50:37;8.95;;;2.65;;
1106;SDS011;540;49.448;8.612;2023-12-20T10:53:06;11.93;;;3.05;;
1106;SDS011;540;49.448;8.612;2023-12-20T10:55:34;10.80;;;3.47;;
1106;SDS011;540;49.448;8.612;2023-12-20T10:58:06;7.13;;;2.88;;
1106;SDS011;540;49.448;8.612;2023-12-20T11:00:36;6.45;;;3.63;;
1106;SDS011;540;49.448;8.612;2023-12-20T11:03:09;5.25;;;2.92;;
1106;SDS011;540;49.448;8.612;2023-12-20T11:05:38;6.28;;;3.13;;
1106;SDS011;540;49.448;8.612;2023-12-20T11:08:16;5.50;;;2.40;;
1106;SDS011;540;49.448;8.612;2023-12-20T11:10:51;7.45;;;2.70;;
1106;SDS011;540;49.448;8.612;2023-12-20T11:15:55;4.75;;;2.17;;
1106;SDS011;540;49.448;8.612;2023-12-20T11:18:29;5.43;;;2.53;;
1106;SDS011;540;49.448;8.612;2023-12-20T11:21:00;4.72;;;2.33;;
1106;SDS011;540;49.448;8.612;2023-12-20T11:23:29;7.43;;;2.53;;
1106;SDS011;540;49.448;8.612;2023-12-20T11:25:57;5.28;;;2.42;;
1106;SDS011;540;49.448;8.612;2023-12-20T11:28:26;6.75;;;3.25;;
1106;SDS011;540;49.448;8.612;2023-12-20T11:30:56;8.63;;;3.00;;
1106;SDS011;540;49.448;8.612;2023-12-20T11:33:29;5.50;;;2.17;;
1106;SDS011;540;49.448;8.612;2023-12-20T11:36:02;11.35;;;2.80;;
1106;SDS011;540;49.448;8.612;2023-12-20T11:38:35;5.63;;;2.50;;
1106;SDS011;540;49.448;8.612;2023-12-20T11:41:05;9.23;;;3.13;;
1106;SDS011;540;49.448;8.612;2023-12-20T11:43:35;11.02;;;3.83;;
1106;SDS011;540;49.448;8.612;2023-12-20T11:46:04;6.40;;;2.33;;
1106;SDS011;540;49.448;8.612;2023-12-20T11:48:36;5.32;;;2.50;;
1106;SDS011;540;49.448;8.612;2023-12-20T11:51:09;5.18;;;2.30;;
1106;SDS011;540;49.448;8.612;2023-12-20T11:53:40;6.05;;;2.20;;
1106;SDS011;540;49.448;8.612;2023-12-20T11:56:09;5.82;;;2.42;;
1106;SDS011;540;49.448;8.612;2023-12-20T11:58:37;6.38;;;2.83;;
1106;SDS011;540;49.448;8.612;2023-12-20T12:01:05;8.38;;;2.20;;
1106;SDS011;540;49.448;8.612;2023-12-20T12:03:36;6.18;;;2.50;;
1106;SDS011;540;49.448;8.612;2023-12-20T12:06:04;4.70;;;2.50;;
1106;SDS011;540;49.448;8.612;2023-12-20T12:08:34;7.80;;;3.17;;
1106;SDS011;540;49.448;8.612;2023-12-20T12:11:03;6.15;;;2.60;;
1106;SDS011;540;49.448;8.612;2023-12-20T12:13:31;9.07;;;3.92;;
1106;SDS011;540;49.448;8.612;2023-12-20T12:15:59;6.97;;;3.10;;
1106;SDS011;540;49.448;8.612;2023-12-20T12:18:27;9.30;;;2.80;;
1106;SDS011;540;49.448;8.612;2023-12-20T12:21:01;8.00;;;3.05;;
1106;SDS011;540;49.448;8.612;2023-12-20T12:23:38;8.35;;;2.70;;
1106;SDS011;540;49.448;8.612;2023-12-20T12:26:06;7.90;;;2.72;;
1106;SDS011;540;49.448;8.612;2023-12-20T12:28:35;5.25;;;2.83;;
1106;SDS011;540;49.448;8.612;2023-12-20T12:31:03;11.75;;;4.85;;
1106;SDS011;540;49.448;8.612;2023-12-20T12:33:31;16.33;;;8.85;;
1106;SDS011;540;49.448;8.612;2023-12-20T12:36:02;10.38;;;3.63;;
1106;SDS011;540;49.448;8.612;2023-12-20T12:38:33;9.60;;;4.05;;
1106;SDS011;540;49.448;8.612;2023-12-20T12:41:01;7.75;;;3.72;;
1106;SDS011;540;49.448;8.612;2023-12-20T12:43:29;7.97;;;3.22;;
1106;SDS011;540;49.448;8.612;2023-12-20T12:46:00;7.97;;;3.63;;
1106;SDS011;540;49.448;8.612;2023-12-20T12:48:28;8.02;;;4.70;;
1106;SDS011;540;49.448;8.612;2023-12-20T12:50:56;11.00;;;3.70;;
1106;SDS011;540;49.448;8.612;2023-12-20T12:53:26;10.10;;;3.15;;
1106;SDS011;540;49.448;8.612;2023-12-20T12:55:54;6.93;;;3.03;;
1106;SDS011;540;49.448;8.612;2023-12-20T12:58:22;10.93;;;3.90;;
1106;SDS011;540;49.448;8.612;2023-12-20T13:00:52;7.43;;;3.17;;
1106;SDS011;540;49.448;8.612;2023-12-20T13:03:20;7.05;;;2.83;;
1106;SDS011;540;49.448;8.612;2023-12-20T13:05:48;9.68;;;3.10;;
1106;SDS011;540;49.448;8.612;2023-12-20T13:08:16;12.27;;;3.63;;
1106;SDS011;540;49.448;8.612;2023-12-20T13:10:45;7.82;;;3.38;;
1106;SDS011;540;49.448;8.612;2023-12-20T13:13:13;9.45;;;3.40;;
1106;SDS011;540;49.448;8.612;2023-12-20T13:15:41;8.55;;;3.17;;
1106;SDS011;540;49.448;8.612;2023-12-20T13:18:14;9.63;;;2.92;;
1106;SDS011;540;49.448;8.612;2023-12-20T13:20:42;7.15;;;3.28;;
1106;SDS011;540;49.448;8.612;2023-12-20T13:23:10;9.93;;;3.33;;
1106;SDS011;540;49.448;8.612;2023-12-20T13:25:38;9.95;;;3.53;;
1106;SDS011;540;49.448;8.612;2023-12-20T13:28:09;8.77;;;3.67;;
1106;SDS011;540;49.448;8.612;2023-12-20T13:30:38;6.57;;;3.03;;
1106;SDS011;540;49.448;8.612;2023-12-20T13:33:06;6.75;;;3.08;;
1106;SDS011;540;49.448;8.612;2023-12-20T13:35:34;10.25;;;3.55;;
1106;SDS011;540;49.448;8.612;2023-12-20T13:38:03;9.73;;;3.03;;
1106;SDS011;540;49.448;8.612;2023-12-20T13:40:31;6.68;;;2.97;;
1106;SDS011;540;49.448;8.612;2023-12-20T13:42:59;9.07;;;3.92;;
1106;SDS011;540;49.448;8.612;2023-12-20T13:45:30;9.13;;;3.55;;
1106;SDS011;540;49.448;8.612;2023-12-20T13:47:58;5.38;;;2.70;;
1106;SDS011;540;49.448;8.612;2023-12-20T13:50:26;7.88;;;3.10;;
1106;SDS011;540;49.448;8.612;2023-12-20T13:52:55;6.38;;;2.80;;
1106;SDS011;540;49.448;8.612;2023-12-20T13:55:22;6.93;;;3.13;;
1106;SDS011;540;49.448;8.612;2023-12-20T13:57:53;12.57;;;3.35;;
1106;SDS011;540;49.448;8.612;2023-12-20T14:00:21;8.98;;;3.40;;
1106;SDS011;540;49.448;8.612;2023-12-20T14:02:51;7.75;;;3.35;;
1106;SDS011;540;49.448;8.612;2023-12-20T14:05:19;8.57;;;2.80;;
1106;SDS011;540;49.448;8.612;2023-12-20T14:07:54;11.13;;;3.67;;
1106;SDS011;540;49.448;8.612;2023-12-20T14:10:24;7.25;;;2.97;;
1106;SDS011;540;49.448;8.612;2023-12-20T14:12:53;6.70;;;2.55;;
1106;SDS011;540;49.448;8.612;2023-12-20T14:15:21;7.65;;;2.60;;
1106;SDS011;540;49.448;8.612;2023-12-20T14:17:52;7.93;;;2.80;;
1106;SDS011;540;49.448;8.612;2023-12-20T14:20:21;8.77;;;2.90;;
1106;SDS011;540;49.448;8.612;2023-12-20T14:22:48;10.50;;;3.38;;
1106;SDS011;540;49.448;8.612;2023-12-20T14:25:16;8.25;;;2.63;;
1106;SDS011;540;49.448;8.612;2023-12-20T14:27:44;9.55;;;3.90;;
1106;SDS011;540;49.448;8.612;2023-12-20T14:30:13;8.23;;;3.17;;
1106;SDS011;540;49.448;8.612;2023-12-20T14:32:43;7.97;;;2.97;;
1106;SDS011;540;49.448;8.612;2023-12-20T14:35:15;8.70;;;3.08;;
1106;SDS011;540;49.448;8.612;2023-12-20T14:37:43;5.57;;;2.60;;
1106;SDS011;540;49.448;8.612;2023-12-20T14:40:11;8.73;;;2.78;;
1106;SDS011;540;49.448;8.612;2023-12-20T14:42:42;4.95;;;2.38;;
1106;SDS011;540;49.448;8.612;2023-12-20T14:45:11;7.90;;;2.40;;
1106;SDS011;540;49.448;8.612;2023-12-20T14:47:40;7.60;;;2.50;;
1106;SDS011;540;49.448;8.612;2023-12-20T14:50:08;10.35;;;3.10;;
1106;SDS011;540;49.448;8.612;2023-12-20T14:52:38;8.45;;;2.75;;
1106;SDS011;540;49.448;8.612;2023-12-20T14:55:07;8.10;;;2.58;;
1106;SDS011;540;49.448;8.612;2023-12-20T14:57:35;9.80;;;2.65;;
1106;SDS011;540;49.448;8.612;2023-12-20T15:00:03;5.53;;;2.50;;
1106;SDS011;540;49.448;8.612;2023-12-20T15:02:32;7.38;;;2.60;;
1106;SDS011;540;49.448;8.612;2023-12-20T15:05:00;5.47;;;2.17;;
1106;SDS011;540;49.448;8.612;2023-12-20T15:07:28;6.53;;;2.50;;
1106;SDS011;540;49.448;8.612;2023-12-20T15:09:57;7.97;;;2.50;;
1106;SDS011;540;49.448;8.612;2023-12-20T15:12:25;9.88;;;2.53;;
1106;SDS011;540;49.448;8.612;2023-12-20T15:14:53;10.48;;;2.42;;
1106;SDS011;540;49.448;8.612;2023-12-20T15:17:22;8.93;;;2.78;;
1106;SDS011;540;49.448;8.612;2023-12-20T15:19:52;5.82;;;2.60;;
1106;SDS011;540;49.448;8.612;2023-12-20T15:22:20;6.72;;;2.55;;
1106;SDS011;540;49.448;8.612;2023-12-20T15:24:48;10.10;;;3.22;;
1106;SDS011;540;49.448;8.612;2023-12-20T15:27:19;9.95;;;3.17;;
1106;SDS011;540;49.448;8.612;2023-12-20T15:29:50;10.55;;;3.15;;
1106;SDS011;540;49.448;8.612;2023-12-20T15:32:18;9.07;;;3.05;;
1106;SDS011;540;49.448;8.612;2023-12-20T15:34:46;10.00;;;3.17;;